createdAt,value
2019-03-04T00:00:16.222Z,37.50
2019-03-04T00:01:45.838Z,35.77
2019-03-04T00:03:11.577Z,38.02
2019-03-04T00:04:37.154Z,36.85
2019-03-04T00:06:02.764Z,36.80
2019-03-04T00:07:28.332Z,35.53
2019-03-04T00:08:53.878Z,35.43
2019-03-04T00:10:19.440Z,36.58
2019-03-04T00:11:45.065Z,39.23
2019-03-04T00:13:10.584Z,38.33
2019-03-04T00:14:36.122Z,38.33
2019-03-04T00:16:01.883Z,39.57
2019-03-04T00:17:27.464Z,40.10
2019-03-04T00:18:53.021Z,39.70
2019-03-04T00:20:18.669Z,39.77
2019-03-04T00:21:44.298Z,43.57
2019-03-04T00:23:09.768Z,40.90
2019-03-04T00:24:35.289Z,38.67
2019-03-04T00:26:00.839Z,38.97
2019-03-04T00:27:26.366Z,43.20
2019-03-04T00:28:51.892Z,44.97
2019-03-04T00:30:17.645Z,48.10
2019-03-04T00:31:43.178Z,47.30
2019-03-04T00:33:08.798Z,45.53
2019-03-04T00:34:34.344Z,47.40
2019-03-04T00:35:59.891Z,47.50
2019-03-04T00:37:25.549Z,49.47
2019-03-04T00:38:51.198Z,46.80
2019-03-04T00:40:17.818Z,50.40
2019-03-04T00:41:43.345Z,47.93
2019-03-04T00:43:08.877Z,46.80
2019-03-04T00:44:34.421Z,45.60
2019-03-04T00:45:59.975Z,44.27
2019-03-04T00:47:25.501Z,45.70
2019-03-04T00:48:51.029Z,46.20
2019-03-04T00:50:16.542Z,43.93
2019-03-04T00:51:42.206Z,44.60
2019-03-04T00:53:07.746Z,48.57
2019-03-04T00:54:33.249Z,46.45
2019-03-04T00:55:58.930Z,46.42
2019-03-04T00:57:24.486Z,45.97
2019-03-04T00:58:50.001Z,47.40
2019-03-04T01:00:18.909Z,48.70
2019-03-04T01:01:44.658Z,45.98
2019-03-04T01:03:10.293Z,46.40
2019-03-04T01:04:35.826Z,46.27
2019-03-04T01:06:03.362Z,48.83
2019-03-04T01:07:28.741Z,50.70
2019-03-04T01:08:54.429Z,49.03
2019-03-04T01:10:20.292Z,48.00
2019-03-04T01:11:45.958Z,48.73
2019-03-04T01:13:11.706Z,48.23
2019-03-04T01:14:37.329Z,48.33
2019-03-04T01:16:02.958Z,46.55
2019-03-04T01:17:28.761Z,45.00
2019-03-04T01:18:54.339Z,46.50
2019-03-04T01:20:20.170Z,47.73
2019-03-04T01:21:45.810Z,47.77
2019-03-04T01:23:11.428Z,47.98
2019-03-04T01:24:36.978Z,50.33
2019-03-04T01:26:02.522Z,49.18
2019-03-04T01:27:28.134Z,50.43
2019-03-04T01:28:53.668Z,47.77
2019-03-04T01:30:21.070Z,46.00
2019-03-04T01:31:46.650Z,48.40
2019-03-04T01:33:12.246Z,45.23
2019-03-04T01:34:37.785Z,45.73
2019-03-04T01:36:03.428Z,41.68
2019-03-04T01:37:29.067Z,42.45
2019-03-04T01:38:54.627Z,43.90
2019-03-04T01:40:21.631Z,46.53
2019-03-04T01:41:47.129Z,45.38
2019-03-04T01:43:12.793Z,48.10
2019-03-04T01:44:38.430Z,47.77
2019-03-04T01:46:04.111Z,48.40
2019-03-04T01:47:29.788Z,49.63
2019-03-04T01:48:55.463Z,49.73
2019-03-04T01:50:25.743Z,49.70
2019-03-04T01:51:51.660Z,49.80
2019-03-04T01:53:17.312Z,48.17
2019-03-04T01:54:45.223Z,47.10
2019-03-04T01:56:10.768Z,48.45
2019-03-04T01:57:36.319Z,46.30
2019-03-04T01:59:04.860Z,47.53
2019-03-04T02:00:30.600Z,47.57
2019-03-04T02:01:56.137Z,50.12
2019-03-04T02:03:21.681Z,48.33
2019-03-04T02:04:47.196Z,45.08
2019-03-04T02:06:12.817Z,45.63
2019-03-04T02:07:38.490Z,47.05
2019-03-04T02:09:05.533Z,46.67
2019-03-04T02:10:31.065Z,44.00
2019-03-04T02:11:56.613Z,43.03
2019-03-04T02:13:22.286Z,42.62
2019-03-04T02:14:47.817Z,41.77
2019-03-04T02:16:13.371Z,43.00
2019-03-04T02:17:39.089Z,40.90
2019-03-04T02:19:04.709Z,41.90
2019-03-04T02:20:30.476Z,38.67
2019-03-04T02:21:55.976Z,39.45
2019-03-04T02:23:21.496Z,37.42
2019-03-04T02:24:47.058Z,38.75
2019-03-04T02:26:24.831Z,36.00
2019-03-04T02:27:53.024Z,37.90
2019-03-04T02:29:18.669Z,38.08
2019-03-04T02:30:44.290Z,37.42
2019-03-04T02:32:09.831Z,39.88
2019-03-04T02:33:35.615Z,39.30
2019-03-04T02:35:01.203Z,37.53
2019-03-04T02:36:26.775Z,34.25
2019-03-04T02:37:52.462Z,38.25
2019-03-04T02:39:18.118Z,38.33
2019-03-04T02:40:43.806Z,39.70
2019-03-04T02:42:09.323Z,39.45
2019-03-04T02:43:35.019Z,40.78
2019-03-04T02:45:00.566Z,39.03
2019-03-04T02:46:26.307Z,39.45
2019-03-04T02:47:51.853Z,39.20
2019-03-04T02:49:17.539Z,39.85
2019-03-04T02:50:43.043Z,42.95
2019-03-04T02:52:08.703Z,41.45
2019-03-04T02:53:34.204Z,40.38
2019-03-04T02:54:59.709Z,41.45
2019-03-04T02:56:25.853Z,42.23
2019-03-04T02:57:51.378Z,42.43
2019-03-04T02:59:16.917Z,42.95
2019-03-04T03:00:42.683Z,42.15
2019-03-04T03:02:08.655Z,41.23
2019-03-04T03:03:34.200Z,43.35
2019-03-04T03:04:59.823Z,41.10
2019-03-04T03:06:25.426Z,39.85
2019-03-04T03:07:50.928Z,40.50
2019-03-04T03:09:16.523Z,40.50
2019-03-04T03:10:42.257Z,41.77
2019-03-04T03:12:07.917Z,40.30
2019-03-04T03:13:36.537Z,37.95
2019-03-04T03:15:02.271Z,39.42
2019-03-04T03:16:27.805Z,38.08
2019-03-04T03:17:53.487Z,39.60
2019-03-04T03:19:19.044Z,44.35
2019-03-04T03:20:44.577Z,45.12
2019-03-04T03:22:10.106Z,43.60
2019-03-04T03:23:37.322Z,44.03
2019-03-04T03:25:03.108Z,43.08
2019-03-04T03:26:28.638Z,44.55
2019-03-04T03:27:54.220Z,43.08
2019-03-04T03:29:19.755Z,44.48
2019-03-04T03:30:45.235Z,41.90
2019-03-04T03:32:10.765Z,45.43
2019-03-04T03:33:38.811Z,46.18
2019-03-04T03:35:08.570Z,44.48
2019-03-04T03:36:34.566Z,45.23
2019-03-04T03:38:00.106Z,46.88
2019-03-04T03:39:25.661Z,45.85
2019-03-04T03:40:51.368Z,43.90
2019-03-04T03:42:19.053Z,43.25
2019-03-04T03:43:44.129Z,43.60
2019-03-04T03:45:10.126Z,44.10
2019-03-04T03:46:37.356Z,40.65
2019-03-04T03:48:02.895Z,40.80
2019-03-04T03:49:28.454Z,38.78
2019-03-04T03:50:54.056Z,39.23
2019-03-04T03:52:19.601Z,40.95
2019-03-04T03:53:45.137Z,41.45
2019-03-04T03:55:11.624Z,42.50
2019-03-04T03:56:37.487Z,43.48
2019-03-04T03:58:03.033Z,42.62
2019-03-04T03:59:28.653Z,44.55
2019-03-04T04:00:54.339Z,40.83
2019-03-04T04:02:20.038Z,40.20
2019-03-04T04:03:45.597Z,41.77
2019-03-04T04:05:11.270Z,41.28
2019-03-04T04:06:36.832Z,42.70
2019-03-04T04:08:02.364Z,44.08
2019-03-04T04:09:27.834Z,40.77
2019-03-04T04:10:53.533Z,40.63
2019-03-04T04:12:19.149Z,41.23
2019-03-04T04:13:44.667Z,40.80
2019-03-04T04:15:10.920Z,38.33
2019-03-04T04:16:36.566Z,41.05
2019-03-04T04:18:02.098Z,39.50
2019-03-04T04:19:27.825Z,39.20
2019-03-04T04:20:53.588Z,40.25
2019-03-04T04:22:19.479Z,36.00
2019-03-04T04:23:47.237Z,39.83
2019-03-04T04:25:12.970Z,40.03
2019-03-04T04:26:38.510Z,38.78
2019-03-04T04:28:06.674Z,39.42
2019-03-04T04:29:35.266Z,39.55
2019-03-04T04:31:00.837Z,41.88
2019-03-04T04:32:26.378Z,43.95
2019-03-04T04:33:51.961Z,41.25
2019-03-04T04:35:17.631Z,40.40
2019-03-04T04:36:43.294Z,42.15
2019-03-04T04:38:08.801Z,40.75
2019-03-04T04:39:34.304Z,40.43
2019-03-04T04:40:59.878Z,39.75
2019-03-04T04:42:25.526Z,39.98
2019-03-04T04:43:51.013Z,41.25
2019-03-04T04:45:16.732Z,41.30
2019-03-04T04:46:55.567Z,40.20
2019-03-04T04:48:21.514Z,39.05
2019-03-04T04:49:47.037Z,40.15
2019-03-04T04:51:12.614Z,41.02
2019-03-04T04:52:38.234Z,38.83
2019-03-04T04:54:03.774Z,39.50
2019-03-04T04:55:48.374Z,38.05
2019-03-04T04:57:13.985Z,38.33
2019-03-04T04:58:42.795Z,37.08
2019-03-04T05:00:11.459Z,37.93
2019-03-04T05:01:36.980Z,38.48
2019-03-04T05:03:02.642Z,38.28
2019-03-04T05:04:28.262Z,39.05
2019-03-04T05:05:53.914Z,38.38
2019-03-04T05:07:19.614Z,36.30
2019-03-04T05:08:45.116Z,38.40
2019-03-04T05:10:13.753Z,38.13
2019-03-04T05:11:39.431Z,34.95
2019-03-04T05:13:04.917Z,34.98
2019-03-04T05:14:30.558Z,31.77
2019-03-04T05:15:56.122Z,30.82
2019-03-04T05:17:24.294Z,33.75
2019-03-04T05:18:52.654Z,34.23
2019-03-04T05:20:20.334Z,31.02
2019-03-04T05:21:45.998Z,31.80
2019-03-04T05:23:11.666Z,32.53
2019-03-04T05:24:37.326Z,29.72
2019-03-04T05:26:02.986Z,31.55
2019-03-04T05:27:28.562Z,32.93
2019-03-04T05:28:54.123Z,29.87
2019-03-04T05:30:20.378Z,31.60
2019-03-04T05:31:45.899Z,34.98
2019-03-04T05:33:11.560Z,33.90
2019-03-04T05:34:37.222Z,32.17
2019-03-04T05:36:02.847Z,34.33
2019-03-04T05:37:28.444Z,32.42
2019-03-04T05:38:53.998Z,33.35
2019-03-04T05:40:19.677Z,31.65
2019-03-04T05:41:45.184Z,31.20
2019-03-04T05:43:10.734Z,31.00
2019-03-04T05:44:36.249Z,30.37
2019-03-04T05:46:01.802Z,30.82
2019-03-04T05:47:27.367Z,33.85
2019-03-04T05:48:52.906Z,31.00
2019-03-04T05:50:18.702Z,28.77
2019-03-04T05:51:44.221Z,30.27
2019-03-04T05:53:09.766Z,31.85
2019-03-04T05:54:35.268Z,31.40
2019-03-04T05:56:00.783Z,29.80
2019-03-04T05:57:26.289Z,29.95
2019-03-04T05:58:51.901Z,29.23
2019-03-04T06:00:19.425Z,29.72
2019-03-04T06:01:52.435Z,29.95
2019-03-04T06:03:18.182Z,28.35
2019-03-04T06:04:45.705Z,28.52
2019-03-04T06:06:11.450Z,27.32
2019-03-04T06:07:43.078Z,27.42
2019-03-04T06:09:10.758Z,23.87
2019-03-04T06:10:36.257Z,24.67
2019-03-04T06:12:01.917Z,23.95
2019-03-04T06:13:27.538Z,23.02
2019-03-04T06:14:53.070Z,23.15
2019-03-04T06:16:18.672Z,23.85
2019-03-04T06:17:44.318Z,25.17
2019-03-04T06:19:09.917Z,25.70
2019-03-04T06:20:35.507Z,27.32
2019-03-04T06:22:01.062Z,24.63
2019-03-04T06:23:26.631Z,24.72
2019-03-04T06:24:52.181Z,23.70
2019-03-04T06:26:17.736Z,23.00
2019-03-04T06:27:43.421Z,22.35
2019-03-04T06:29:08.969Z,24.65
2019-03-04T06:30:34.718Z,21.12
2019-03-04T06:32:00.315Z,18.10
2019-03-04T06:33:25.979Z,18.52
2019-03-04T06:34:51.615Z,18.15
2019-03-04T06:36:17.104Z,20.82
2019-03-04T06:37:42.873Z,18.80
2019-03-04T06:39:09.373Z,19.62
2019-03-04T06:40:34.898Z,17.92
2019-03-04T06:42:00.438Z,20.05
2019-03-04T06:43:25.873Z,19.87
2019-03-04T06:44:54.191Z,19.85
2019-03-04T06:46:19.751Z,21.60
2019-03-04T06:47:45.494Z,20.02
2019-03-04T06:49:11.012Z,20.45
2019-03-04T06:50:52.978Z,18.42
2019-03-04T06:52:18.810Z,18.62
2019-03-04T06:54:07.973Z,18.45
2019-03-04T06:55:58.823Z,16.60
2019-03-04T06:57:28.680Z,16.52
2019-03-04T06:58:58.915Z,16.97
2019-03-04T07:00:53.631Z,17.35
2019-03-04T07:02:19.637Z,17.25
2019-03-04T07:04:00.362Z,16.90
2019-03-04T07:05:53.049Z,17.45
2019-03-04T07:07:20.217Z,17.20
2019-03-04T07:09:12.615Z,16.85
2019-03-04T07:10:38.104Z,16.93
2019-03-04T07:12:03.641Z,16.80
2019-03-04T07:13:29.214Z,17.60
2019-03-04T07:14:54.742Z,14.43
2019-03-04T07:16:21.714Z,14.87
2019-03-04T07:17:47.250Z,13.62
2019-03-04T07:19:14.767Z,14.43
2019-03-04T07:20:40.324Z,14.63
2019-03-04T07:22:06.081Z,15.55
2019-03-04T07:23:31.713Z,15.32
2019-03-04T07:24:57.231Z,14.43
2019-03-04T07:26:22.776Z,14.68
2019-03-04T07:27:48.385Z,15.05
2019-03-04T07:29:15.114Z,16.12
2019-03-04T07:30:40.726Z,14.93
2019-03-04T07:32:06.497Z,15.53
2019-03-04T07:33:32.050Z,14.95
2019-03-04T07:34:57.534Z,15.85
2019-03-04T07:36:23.162Z,16.62
2019-03-04T07:37:50.702Z,16.87
2019-03-04T07:39:17.202Z,18.07
2019-03-04T07:40:42.750Z,15.83
2019-03-04T07:42:08.268Z,16.50
2019-03-04T07:43:33.809Z,15.25
2019-03-04T07:44:59.276Z,14.90
2019-03-04T07:46:24.840Z,16.00
2019-03-04T07:47:50.494Z,14.85
2019-03-04T07:49:16.094Z,16.05
2019-03-04T07:50:41.902Z,15.38
2019-03-04T07:52:07.543Z,16.65
2019-03-04T07:53:33.266Z,15.75
2019-03-04T07:54:58.749Z,16.32
2019-03-04T07:56:24.374Z,16.82
2019-03-04T07:57:49.989Z,17.00
2019-03-04T07:59:15.479Z,15.83
2019-03-04T08:00:41.045Z,17.05
2019-03-04T08:02:06.714Z,15.80
2019-03-04T08:03:32.264Z,15.30
2019-03-04T08:04:57.794Z,15.10
2019-03-04T08:06:23.515Z,14.87
2019-03-04T08:07:51.338Z,13.20
2019-03-04T08:10:27.466Z,14.53
2019-03-04T08:12:47.686Z,13.62
2019-03-04T08:14:13.239Z,13.00
2019-03-04T08:15:47.243Z,14.80
2019-03-04T08:17:12.875Z,11.95
2019-03-04T08:18:38.527Z,11.53
2019-03-04T08:20:04.199Z,11.83
2019-03-04T08:21:29.915Z,11.10
2019-03-04T08:22:55.436Z,10.50
2019-03-04T08:24:21.087Z,10.68
2019-03-04T08:25:46.818Z,9.98
2019-03-04T08:27:12.338Z,9.73
2019-03-04T08:28:38.082Z,9.25
2019-03-04T08:30:03.661Z,10.00
2019-03-04T08:31:29.420Z,10.18
2019-03-04T08:32:54.946Z,8.33
2019-03-04T08:34:30.832Z,9.60
2019-03-04T08:35:50.768Z,7.80
2019-03-04T08:37:16.411Z,8.35
2019-03-04T08:38:41.947Z,9.25
2019-03-04T08:40:08.115Z,8.50
2019-03-04T08:41:33.745Z,8.30
2019-03-04T08:42:59.374Z,7.80
2019-03-04T08:44:24.900Z,8.70
2019-03-04T08:45:50.751Z,7.90
2019-03-04T08:47:16.372Z,8.27
2019-03-04T08:48:41.988Z,9.27
2019-03-04T08:50:08.412Z,8.40
2019-03-04T08:51:33.906Z,8.20
2019-03-04T08:52:59.737Z,8.80
2019-03-04T08:54:25.244Z,8.90
2019-03-04T08:55:50.886Z,9.00
2019-03-04T08:57:16.377Z,9.37
2019-03-04T08:58:41.867Z,8.60
2019-03-04T09:00:10.066Z,9.70
2019-03-04T09:01:35.783Z,8.38
2019-03-04T09:03:01.414Z,8.10
2019-03-04T09:04:27.140Z,8.30
2019-03-04T09:05:54.078Z,8.30
2019-03-04T09:07:19.715Z,8.70
2019-03-04T09:08:45.223Z,9.00
2019-03-04T09:10:17.167Z,8.07
2019-03-04T09:11:42.766Z,9.43
2019-03-04T09:13:08.360Z,8.93
2019-03-04T09:14:33.837Z,8.87
2019-03-04T09:15:59.446Z,9.10
2019-03-04T09:17:25.005Z,9.67
2019-03-04T09:18:50.577Z,9.70
2019-03-04T09:20:16.427Z,10.20
2019-03-04T09:21:41.947Z,10.20
2019-03-04T09:23:08.548Z,10.50
2019-03-04T09:24:34.030Z,9.97
2019-03-04T09:26:03.449Z,10.73
2019-03-04T09:27:28.990Z,9.53
2019-03-04T09:28:54.508Z,10.60
2019-03-04T09:30:20.277Z,12.07
2019-03-04T09:31:45.819Z,10.67
2019-03-04T09:33:11.350Z,13.03
2019-03-04T09:34:36.869Z,14.60
2019-03-04T09:36:02.414Z,15.10
2019-03-04T09:37:27.922Z,14.63
2019-03-04T09:38:53.375Z,14.87
2019-03-04T09:40:20.173Z,14.53
2019-03-04T09:41:45.762Z,16.17
2019-03-04T09:43:11.405Z,16.70
2019-03-04T09:44:37.004Z,16.07
2019-03-04T09:46:02.783Z,15.97
2019-03-04T09:47:28.277Z,15.80
2019-03-04T09:48:53.844Z,16.87
2019-03-04T09:50:20.131Z,16.40
2019-03-04T09:51:45.658Z,18.40
2019-03-04T09:53:11.256Z,17.40
2019-03-04T09:54:36.847Z,17.47
2019-03-04T09:56:02.388Z,18.70
2019-03-04T09:57:27.941Z,19.60
2019-03-04T09:58:53.481Z,18.77
2019-03-04T10:00:43.067Z,18.53
2019-03-04T10:02:12.949Z,18.30
2019-03-04T10:04:05.198Z,17.90
2019-03-04T10:05:54.652Z,18.70
2019-03-04T10:07:44.493Z,18.13
2019-03-04T10:09:42.360Z,18.50
2019-03-04T10:11:34.897Z,18.40
2019-03-04T10:13:42.950Z,19.23
2019-03-04T10:15:52.309Z,18.10
2019-03-04T10:18:05.007Z,18.80
2019-03-04T10:20:14.370Z,20.53
2019-03-04T10:22:00.987Z,21.23
2019-03-04T10:23:47.961Z,19.57
2019-03-04T10:25:46.970Z,20.90
2019-03-04T10:27:41.133Z,19.23
2019-03-04T10:29:42.850Z,21.90
2019-03-04T10:31:36.184Z,19.73
2019-03-04T10:33:45.349Z,21.43
2019-03-04T10:35:45.058Z,20.80
2019-03-04T10:37:38.342Z,21.73
2019-03-04T10:39:45.572Z,24.57
2019-03-04T10:41:56.939Z,21.57
2019-03-04T10:43:59.644Z,23.63
2019-03-04T10:45:59.781Z,21.43
2019-03-04T10:47:25.478Z,22.47
2019-03-04T10:48:50.985Z,23.63
2019-03-04T10:50:16.718Z,23.50
2019-03-04T10:51:42.268Z,24.97
2019-03-04T10:53:07.851Z,23.00
2019-03-04T10:54:33.354Z,23.17
2019-03-04T10:55:58.842Z,21.50
2019-03-04T10:57:24.593Z,23.57
2019-03-04T10:58:50.095Z,22.20
2019-03-04T11:00:19.531Z,20.10
2019-03-04T11:01:45.366Z,23.30
2019-03-04T11:03:10.912Z,23.50
2019-03-04T11:04:36.449Z,23.07
2019-03-04T11:06:01.908Z,23.13
2019-03-04T11:07:27.467Z,24.77
2019-03-04T11:08:52.975Z,24.17
2019-03-04T11:10:18.773Z,23.67
2019-03-04T11:11:44.414Z,23.83
2019-03-04T11:13:10.196Z,23.93
2019-03-04T11:14:35.706Z,22.63
2019-03-04T11:16:01.222Z,22.83
2019-03-04T11:17:26.758Z,23.50
2019-03-04T11:18:52.274Z,24.13
2019-03-04T11:20:18.006Z,22.20
2019-03-04T11:21:43.653Z,22.43
2019-03-04T11:23:09.388Z,23.10
2019-03-04T11:24:35.283Z,21.47
2019-03-04T11:26:00.945Z,22.73
2019-03-04T11:27:26.429Z,23.40
2019-03-04T11:28:52.054Z,23.57
2019-03-04T11:30:18.529Z,24.00
2019-03-04T11:31:44.246Z,22.70
2019-03-04T11:33:09.803Z,22.60
2019-03-04T11:34:35.342Z,21.50
2019-03-04T11:36:00.969Z,23.77
2019-03-04T11:37:26.498Z,23.37
2019-03-04T11:38:58.609Z,22.80
2019-03-04T11:40:30.487Z,22.27
2019-03-04T11:41:55.994Z,23.93
2019-03-04T11:43:21.507Z,22.33
2019-03-04T11:44:47.087Z,23.40
2019-03-04T11:46:12.708Z,22.17
2019-03-04T11:47:38.379Z,22.60
2019-03-04T11:49:03.907Z,22.07
2019-03-04T11:50:29.434Z,23.20
2019-03-04T11:51:54.926Z,23.00
2019-03-04T11:53:20.582Z,22.50
2019-03-04T11:54:46.261Z,23.63
2019-03-04T11:56:11.959Z,24.37
2019-03-04T11:57:37.603Z,23.80
2019-03-04T11:59:03.290Z,22.10
2019-03-04T12:00:36.270Z,20.20
2019-03-04T12:02:01.780Z,19.83
2019-03-04T12:03:27.259Z,20.13
2019-03-04T12:04:53.035Z,20.70
2019-03-04T12:06:18.718Z,20.40
2019-03-04T12:07:44.280Z,18.83
2019-03-04T12:09:15.353Z,20.50
2019-03-04T12:10:40.973Z,19.30
2019-03-04T12:12:06.700Z,19.73
2019-03-04T12:13:32.343Z,20.37
2019-03-04T12:14:58.351Z,21.47
2019-03-04T12:16:24.155Z,21.00
2019-03-04T12:17:49.905Z,19.60
2019-03-04T12:19:15.512Z,21.43
2019-03-04T12:20:41.137Z,20.17
2019-03-04T12:22:06.869Z,19.53
2019-03-04T12:23:33.273Z,19.07
2019-03-04T12:24:59.006Z,19.27
2019-03-04T12:26:24.721Z,18.73
2019-03-04T12:27:50.349Z,21.87
2019-03-04T12:29:15.847Z,20.80
2019-03-04T12:30:41.352Z,18.53
2019-03-04T12:32:21.876Z,19.10
2019-03-04T12:33:47.363Z,19.27
2019-03-04T12:35:14.391Z,18.23
2019-03-04T12:36:43.022Z,17.17
2019-03-04T12:38:08.804Z,18.63
2019-03-04T12:39:34.317Z,18.23
2019-03-04T12:40:59.798Z,18.17
2019-03-04T12:42:25.322Z,18.27
2019-03-04T12:43:50.799Z,18.85
2019-03-04T12:45:16.758Z,19.15
2019-03-04T12:46:42.294Z,22.07
2019-03-04T12:48:08.146Z,20.37
2019-03-04T12:49:33.674Z,19.35
2019-03-04T12:50:59.213Z,19.65
2019-03-04T12:52:24.843Z,19.48
2019-03-04T12:53:50.309Z,18.82
2019-03-04T12:55:15.978Z,19.87
2019-03-04T12:56:41.491Z,17.20
2019-03-04T12:58:07.093Z,19.35
2019-03-04T12:59:32.585Z,18.12
2019-03-04T13:00:58.129Z,15.55
2019-03-04T13:02:23.781Z,16.52
2019-03-04T13:03:49.317Z,18.20
2019-03-04T13:05:15.381Z,18.05
2019-03-04T13:06:41.030Z,17.82
2019-03-04T13:08:06.562Z,17.65
2019-03-04T13:09:32.050Z,19.50
2019-03-04T13:10:57.705Z,19.07
2019-03-04T13:12:23.230Z,16.73
2019-03-04T13:13:48.717Z,16.90
2019-03-04T13:15:19.424Z,15.55
2019-03-04T13:16:44.962Z,16.70
2019-03-04T13:18:10.614Z,16.40
2019-03-04T13:19:36.217Z,16.57
2019-03-04T13:21:01.872Z,15.43
2019-03-04T13:22:27.495Z,14.93
2019-03-04T13:23:52.999Z,17.10
2019-03-04T13:25:18.742Z,17.35
2019-03-04T13:26:44.330Z,17.82
2019-03-04T13:28:10.022Z,15.78
2019-03-04T13:29:35.581Z,15.35
2019-03-04T13:31:01.315Z,14.33
2019-03-04T13:32:26.849Z,17.62
2019-03-04T13:33:52.451Z,16.55
2019-03-04T13:35:24.526Z,18.00
2019-03-04T13:36:47.149Z,15.93
2019-03-04T13:38:12.989Z,15.70
2019-03-04T13:39:38.625Z,15.43
2019-03-04T13:41:04.317Z,16.10
2019-03-04T13:42:29.940Z,15.03
2019-03-04T13:43:55.466Z,16.30
2019-03-04T13:45:21.158Z,15.87
2019-03-04T13:46:46.803Z,17.12
2019-03-04T13:48:12.462Z,15.00
2019-03-04T13:49:38.080Z,15.33
2019-03-04T13:51:03.696Z,14.40
2019-03-04T13:52:29.202Z,15.63
2019-03-04T13:53:54.706Z,14.85
2019-03-04T13:55:20.334Z,15.55
2019-03-04T13:56:45.881Z,15.43
2019-03-04T13:58:11.578Z,14.93
2019-03-04T13:59:46.423Z,14.63
2019-03-04T14:01:11.892Z,14.10
2019-03-04T14:02:37.574Z,14.47
2019-03-04T14:04:03.265Z,14.58
2019-03-04T14:05:29.188Z,14.98
2019-03-04T14:06:54.789Z,15.97
2019-03-04T14:08:20.346Z,14.43
2019-03-04T14:09:45.825Z,14.70
2019-03-04T14:11:11.635Z,13.00
2019-03-04T14:12:37.160Z,15.20
2019-03-04T14:14:02.685Z,14.00
2019-03-04T14:15:31.533Z,14.80
2019-03-04T14:17:00.449Z,13.87
2019-03-04T14:18:26.233Z,12.82
2019-03-04T14:19:51.838Z,12.80
2019-03-04T14:21:17.452Z,13.27
2019-03-04T14:22:43.085Z,12.50
2019-03-04T14:24:08.714Z,14.87
2019-03-04T14:25:34.434Z,12.00
2019-03-04T14:27:00.518Z,14.00
2019-03-04T14:28:28.177Z,12.57
2019-03-04T14:29:53.164Z,13.00
2019-03-04T14:31:18.694Z,14.40
2019-03-04T14:32:47.513Z,14.00
2019-03-04T14:34:13.013Z,13.97
2019-03-04T14:35:38.692Z,13.65
2019-03-04T14:37:04.261Z,13.83
2019-03-04T14:38:29.954Z,13.10
2019-03-04T14:39:56.849Z,12.43
2019-03-04T14:41:22.445Z,11.63
2019-03-04T14:42:48.234Z,12.60
2019-03-04T14:44:13.739Z,13.30
2019-03-04T14:45:41.252Z,12.63
2019-03-04T14:47:07.137Z,13.77
2019-03-04T14:48:32.789Z,12.20
2019-03-04T14:50:09.164Z,12.30
2019-03-04T14:51:25.694Z,12.43
2019-03-04T14:52:51.432Z,12.67
2019-03-04T14:54:17.281Z,12.07
2019-03-04T14:55:43.098Z,12.33
2019-03-04T14:57:08.978Z,12.77
2019-03-04T14:58:34.660Z,11.70
2019-03-04T15:00:00.372Z,11.87
2019-03-04T15:01:26.576Z,11.80
2019-03-04T15:02:52.254Z,13.00
2019-03-04T15:04:17.843Z,11.47
2019-03-04T15:05:44.987Z,12.93
2019-03-04T15:07:10.525Z,12.97
2019-03-04T15:08:36.164Z,11.33
2019-03-04T15:10:01.666Z,11.47
2019-03-04T15:11:27.441Z,11.80
2019-03-04T15:12:53.016Z,11.13
2019-03-04T15:14:18.521Z,10.23
2019-03-04T15:15:44.143Z,11.60
2019-03-04T15:17:09.259Z,11.70
2019-03-04T15:18:35.179Z,11.97
2019-03-04T15:20:09.356Z,12.33
2019-03-04T15:21:32.493Z,11.40
2019-03-04T15:22:58.130Z,12.20
2019-03-04T15:24:23.755Z,11.70
2019-03-04T15:25:49.526Z,12.80
2019-03-04T15:27:15.125Z,11.77
2019-03-04T15:28:40.658Z,10.77
2019-03-04T15:30:09.896Z,10.60
2019-03-04T15:31:35.554Z,12.30
2019-03-04T15:33:01.167Z,11.25
2019-03-04T15:34:26.853Z,10.93
2019-03-04T15:35:52.453Z,12.77
2019-03-04T15:37:18.095Z,12.10
2019-03-04T15:38:43.589Z,11.43
2019-03-04T15:40:09.483Z,12.20
2019-03-04T15:41:40.144Z,10.80
2019-03-04T15:43:03.237Z,14.10
2019-03-04T15:44:29.671Z,12.88
2019-03-04T15:45:57.174Z,11.53
2019-03-04T15:47:22.663Z,11.67
2019-03-04T15:48:48.302Z,12.90
2019-03-04T15:50:14.454Z,11.80
2019-03-04T15:51:40.071Z,12.82
2019-03-04T15:53:05.713Z,11.23
2019-03-04T15:54:31.378Z,13.10
2019-03-04T15:55:56.972Z,11.93
2019-03-04T15:57:22.582Z,11.30
2019-03-04T15:58:48.102Z,12.60
2019-03-04T16:00:13.996Z,12.57
2019-03-04T16:01:39.842Z,11.40
2019-03-04T16:03:05.900Z,12.10
2019-03-04T16:04:31.784Z,12.87
2019-03-04T16:05:57.410Z,13.10
2019-03-04T16:07:26.266Z,12.67
2019-03-04T16:08:51.892Z,12.18
2019-03-04T16:10:17.946Z,14.05
2019-03-04T16:11:43.662Z,12.80
2019-03-04T16:13:09.494Z,13.20
2019-03-04T16:14:35.198Z,13.97
2019-03-04T16:16:00.862Z,12.80
2019-03-04T16:17:26.450Z,12.90
2019-03-04T16:18:52.070Z,12.40
2019-03-04T16:20:18.337Z,13.48
2019-03-04T16:21:44.074Z,14.20
2019-03-04T16:23:09.920Z,14.40
2019-03-04T16:24:35.393Z,13.03
2019-03-04T16:26:05.913Z,15.15
2019-03-04T16:27:31.745Z,13.03
2019-03-04T16:28:57.262Z,14.50
2019-03-04T16:30:22.856Z,14.30
2019-03-04T16:31:48.512Z,15.30
2019-03-04T16:33:14.148Z,15.00
2019-03-04T16:34:39.810Z,15.03
2019-03-04T16:36:05.706Z,14.67
2019-03-04T16:37:31.187Z,13.55
2019-03-04T16:38:56.719Z,13.83
2019-03-04T16:40:22.424Z,14.50
2019-03-04T16:41:48.127Z,14.00
2019-03-04T16:43:13.847Z,14.07
2019-03-04T16:44:40.104Z,14.15
2019-03-04T16:46:05.988Z,12.47
2019-03-04T16:47:31.602Z,14.93
2019-03-04T16:48:57.132Z,14.43
2019-03-04T16:50:22.958Z,15.93
2019-03-04T16:51:48.771Z,14.60
2019-03-04T16:53:15.306Z,14.67
2019-03-04T16:54:40.881Z,13.50
2019-03-04T16:56:06.703Z,13.20
2019-03-04T16:57:32.342Z,13.07
2019-03-04T16:58:59.419Z,13.27
2019-03-04T17:00:25.139Z,13.57
2019-03-04T17:01:50.894Z,12.43
2019-03-04T17:03:16.696Z,13.57
2019-03-04T17:04:42.260Z,12.77
2019-03-04T17:06:07.828Z,13.20
2019-03-04T17:07:33.351Z,13.17
2019-03-04T17:08:58.970Z,13.57
2019-03-04T17:10:24.937Z,12.20
2019-03-04T17:11:50.407Z,12.30
2019-03-04T17:13:16.054Z,12.23
2019-03-04T17:14:41.550Z,13.57
2019-03-04T17:16:07.082Z,13.03
2019-03-04T17:17:32.691Z,13.60
2019-03-04T17:18:58.161Z,14.87
2019-03-04T17:20:23.853Z,14.60
2019-03-04T17:21:49.375Z,12.43
2019-03-04T17:23:14.883Z,13.37
2019-03-04T17:24:40.569Z,12.57
2019-03-04T17:26:06.230Z,11.70
2019-03-04T17:27:34.658Z,13.00
2019-03-04T17:29:00.554Z,11.37
2019-03-04T17:30:27.356Z,13.13
2019-03-04T17:31:52.970Z,12.07
2019-03-04T17:33:18.789Z,12.73
2019-03-04T17:34:44.403Z,12.33
2019-03-04T17:36:09.915Z,13.13
2019-03-04T17:37:35.492Z,12.03
2019-03-04T17:39:01.187Z,11.50
2019-03-04T17:40:26.794Z,12.80
2019-03-04T17:41:52.436Z,12.63
2019-03-04T17:43:18.037Z,13.47
2019-03-04T17:44:43.511Z,11.47
2019-03-04T17:46:09.043Z,12.57
2019-03-04T17:47:34.561Z,12.70
2019-03-04T17:49:00.069Z,12.83
2019-03-04T17:50:29.841Z,12.17
2019-03-04T17:51:55.363Z,11.77
2019-03-04T17:53:21.150Z,10.80
2019-03-04T17:54:46.761Z,11.67
2019-03-04T17:56:12.367Z,13.07
2019-03-04T17:57:38.008Z,11.57
2019-03-04T17:59:03.635Z,11.70
2019-03-04T18:00:29.602Z,11.87
2019-03-04T18:01:55.322Z,13.83
2019-03-04T18:03:20.995Z,12.87
2019-03-04T18:04:46.492Z,12.23
2019-03-04T18:06:12.119Z,13.20
2019-03-04T18:07:38.252Z,12.80
2019-03-04T18:09:03.897Z,13.60
2019-03-04T18:10:29.417Z,11.90
2019-03-04T18:11:55.125Z,11.67
2019-03-04T18:13:20.646Z,11.93
2019-03-04T18:14:46.132Z,10.87
2019-03-04T18:16:11.780Z,11.00
2019-03-04T18:17:38.494Z,12.40
2019-03-04T18:19:04.214Z,12.20
2019-03-04T18:20:34.359Z,12.23
2019-03-04T18:21:58.286Z,12.30
2019-03-04T18:23:23.989Z,12.73
2019-03-04T18:24:49.628Z,12.30
2019-03-04T18:26:21.933Z,13.40
2019-03-04T18:27:53.490Z,12.23
2019-03-04T18:29:51.312Z,12.98
2019-03-04T18:31:44.684Z,13.87
2019-03-04T18:34:01.526Z,13.13
2019-03-04T18:36:00.418Z,13.27
2019-03-04T18:37:47.690Z,12.97
2019-03-04T18:39:51.582Z,15.40
2019-03-04T18:41:36.038Z,14.80
2019-03-04T18:43:53.293Z,15.27
2019-03-04T18:45:33.094Z,15.77
2019-03-04T18:47:35.007Z,13.47
2019-03-04T18:49:03.403Z,15.00
2019-03-04T18:50:29.197Z,15.50
2019-03-04T18:51:54.815Z,14.70